createdAt,value
2023-04-15T00:00:21.687Z,90.84
2023-04-15T00:01:23.645Z,90.99
2023-04-15T00:02:25.810Z,91.08
2023-04-15T00:03:28.131Z,90.97
2023-04-15T00:04:30.258Z,90.93
2023-04-15T00:05:32.708Z,91.37
2023-04-15T00:06:37.120Z,91.41
2023-04-15T00:07:39.062Z,91.26
2023-04-15T00:08:41.323Z,91.31
2023-04-15T00:09:43.186Z,91.09
2023-04-15T00:10:45.504Z,91.47
2023-04-15T00:12:49.566Z,91.67
2023-04-15T00:13:51.452Z,91.90
2023-04-15T00:14:54.013Z,92.03
2023-04-15T00:15:56.037Z,92.17
2023-04-15T00:16:58.297Z,92.24
2023-04-15T00:18:00.470Z,92.28
2023-04-15T00:19:02.700Z,92.24
2023-04-15T00:20:06.528Z,92.42
2023-04-15T00:21:08.452Z,92.67
2023-04-15T00:22:10.971Z,92.64
2023-04-15T00:23:12.906Z,92.64
2023-04-15T00:24:15.171Z,92.55
2023-04-15T00:25:17.044Z,92.68
2023-04-15T00:26:20.184Z,92.68
2023-04-15T00:27:22.096Z,93.03
2023-04-15T00:28:23.987Z,93.00
2023-04-15T00:29:25.833Z,93.08
2023-04-15T00:30:27.828Z,93.07
2023-04-15T00:31:31.800Z,93.02
2023-04-15T00:32:33.733Z,93.03
2023-04-15T00:33:35.619Z,92.97
2023-04-15T00:34:37.596Z,92.92
2023-04-15T00:35:40.177Z,93.25
2023-04-15T00:36:43.259Z,93.18
2023-04-15T00:37:46.412Z,93.02
2023-04-15T00:38:48.529Z,93.09
2023-04-15T00:39:50.408Z,93.07
2023-04-15T00:40:53.075Z,93.12
2023-04-15T00:41:55.273Z,93.45
2023-04-15T00:42:57.209Z,93.34
2023-04-15T00:44:00.408Z,93.40
2023-04-15T00:45:03.384Z,93.50
2023-04-15T00:46:06.401Z,93.11
2023-04-15T00:47:09.031Z,93.34
2023-04-15T00:48:11.760Z,93.61
2023-04-15T00:49:15.713Z,93.89
2023-04-15T00:50:17.728Z,93.70
2023-04-15T00:51:19.591Z,93.59
2023-04-15T00:52:21.587Z,93.56
2023-04-15T00:53:23.475Z,93.58
2023-04-15T00:54:25.342Z,93.34
2023-04-15T00:55:27.193Z,93.51
2023-04-15T00:56:29.855Z,93.90
2023-04-15T00:57:33.164Z,93.95
2023-04-15T00:58:35.165Z,94.06
2023-04-15T00:59:37.751Z,94.29
2023-04-15T01:00:40.345Z,94.26
2023-04-15T01:01:45.029Z,94.47
2023-04-15T01:02:47.317Z,94.31
2023-04-15T01:03:50.283Z,94.18
2023-04-15T01:04:52.576Z,94.39
2023-04-15T01:05:55.219Z,94.49
2023-04-15T01:06:57.182Z,94.51
2023-04-15T01:07:59.685Z,94.96
2023-04-15T01:09:02.226Z,95.21
2023-04-15T01:10:06.427Z,95.52
2023-04-15T01:11:09.880Z,95.42
2023-04-15T01:12:14.165Z,95.61
2023-04-15T01:13:16.018Z,95.49
2023-04-15T01:14:18.080Z,95.39
2023-04-15T01:15:20.042Z,95.53
2023-04-15T01:16:22.499Z,95.49
2023-04-15T01:17:24.918Z,95.14
2023-04-15T01:18:27.229Z,95.23
2023-04-15T01:19:30.795Z,95.43
2023-04-15T01:20:34.445Z,95.10
2023-04-15T01:21:37.830Z,95.18
2023-04-15T01:22:40.732Z,95.32
2023-04-15T01:23:45.805Z,95.22
2023-04-15T01:25:09.966Z,95.20
2023-04-15T01:26:13.783Z,95.20
2023-04-15T01:27:15.790Z,95.02
2023-04-15T01:28:18.276Z,94.83
2023-04-15T01:29:20.262Z,94.78
2023-04-15T01:30:22.246Z,94.60
2023-04-15T01:31:25.522Z,94.46
2023-04-15T01:32:27.525Z,94.09
2023-04-15T01:33:29.444Z,93.22
2023-04-15T01:34:32.997Z,93.30
2023-04-15T01:35:35.276Z,92.76
2023-04-15T01:36:37.217Z,92.20
2023-04-15T01:37:39.086Z,92.00
2023-04-15T01:38:40.980Z,91.70
2023-04-15T01:39:42.902Z,91.45
2023-04-15T01:40:45.092Z,91.40
2023-04-15T01:41:47.033Z,91.29
2023-04-15T01:42:49.032Z,91.12
2023-04-15T01:43:50.898Z,91.07
2023-04-15T01:44:53.770Z,90.91
2023-04-15T01:45:55.659Z,90.71
2023-04-15T01:46:57.729Z,90.64
2023-04-15T01:47:59.829Z,90.51
2023-04-15T01:49:02.625Z,90.63
2023-04-15T01:50:06.002Z,90.67
2023-04-15T01:51:07.907Z,90.68
2023-04-15T01:52:09.816Z,90.95
2023-04-15T01:53:11.751Z,90.85
2023-04-15T01:54:13.623Z,90.67
2023-04-15T01:55:15.582Z,90.84
2023-04-15T01:56:17.659Z,90.68
2023-04-15T01:57:19.547Z,90.85
2023-04-15T01:58:21.396Z,90.95
2023-04-15T01:59:23.244Z,90.94
2023-04-15T02:00:25.225Z,90.80
2023-04-15T02:01:27.255Z,90.94
2023-04-15T02:02:29.368Z,91.18
2023-04-15T02:03:31.532Z,91.14
2023-04-15T02:04:33.527Z,91.59
2023-04-15T02:05:36.206Z,91.81
2023-04-15T02:06:38.212Z,91.89
2023-04-15T02:07:40.101Z,92.27
2023-04-15T02:08:41.996Z,92.38
2023-04-15T02:09:43.866Z,92.50
2023-04-15T02:10:46.062Z,92.79
2023-04-15T02:11:48.077Z,92.99
2023-04-15T02:12:50.693Z,93.10
2023-04-15T02:13:52.649Z,93.07
2023-04-15T02:14:54.547Z,93.46
2023-04-15T02:15:56.983Z,93.55
2023-04-15T02:16:59.028Z,93.51
2023-04-15T02:18:01.084Z,93.50
2023-04-15T02:19:03.592Z,93.72
2023-04-15T02:20:07.394Z,93.71
2023-04-15T02:21:09.284Z,93.57
2023-04-15T02:22:11.185Z,93.93
2023-04-15T02:23:13.518Z,93.94
2023-04-15T02:24:15.393Z,93.91
2023-04-15T02:25:17.445Z,94.18
2023-04-15T02:26:19.961Z,94.37
2023-04-15T02:27:21.870Z,94.41
2023-04-15T02:28:23.733Z,94.26
2023-04-15T02:29:25.647Z,94.23
2023-04-15T02:30:27.589Z,94.31
2023-04-15T02:31:29.854Z,94.43
2023-04-15T02:32:32.059Z,94.55
2023-04-15T02:33:34.564Z,94.60
2023-04-15T02:34:36.872Z,94.45
2023-04-15T02:35:38.743Z,94.34
2023-04-15T02:36:40.772Z,94.70
2023-04-15T02:37:42.638Z,94.58
2023-04-15T02:38:44.539Z,94.73
2023-04-15T02:39:47.199Z,94.48
2023-04-15T02:40:49.427Z,94.44
2023-04-15T02:41:51.309Z,94.79
2023-04-15T02:42:53.226Z,94.86
2023-04-15T02:43:55.506Z,94.45
2023-04-15T02:44:58.813Z,94.25
2023-04-15T02:46:00.800Z,94.33
2023-04-15T02:47:02.733Z,94.35
2023-04-15T02:48:05.051Z,94.38
2023-04-15T02:49:06.963Z,94.42
2023-04-15T02:50:11.710Z,94.60
2023-04-15T02:51:20.065Z,94.83
2023-04-15T02:52:22.099Z,94.75
2023-04-15T02:53:24.007Z,94.92
2023-04-15T02:54:26.779Z,95.17
2023-04-15T02:55:29.020Z,95.07
2023-04-15T02:56:31.092Z,94.87
2023-04-15T02:57:33.206Z,94.87
2023-04-15T02:58:36.259Z,94.65
2023-04-15T02:59:38.177Z,94.85
2023-04-15T03:00:40.291Z,94.82
2023-04-15T03:01:42.426Z,94.40
2023-04-15T03:02:45.767Z,94.37
2023-04-15T03:03:47.983Z,94.36
2023-04-15T03:04:50.035Z,94.39
2023-04-15T03:05:51.887Z,94.45
2023-04-15T03:06:53.867Z,94.34
2023-04-15T03:07:55.825Z,94.29
2023-04-15T03:08:57.717Z,94.37
2023-04-15T03:09:59.793Z,94.27
2023-04-15T03:11:01.733Z,94.03
2023-04-15T03:12:03.699Z,94.04
2023-04-15T03:13:05.700Z,94.10
2023-04-15T03:14:07.562Z,94.14
2023-04-15T03:15:09.932Z,94.16
2023-04-15T03:16:12.090Z,94.15
2023-04-15T03:17:14.068Z,94.16
2023-04-15T03:18:15.947Z,94.66
2023-04-15T03:19:17.894Z,94.95
2023-04-15T03:20:19.961Z,94.92
2023-04-15T03:21:21.927Z,95.21
2023-04-15T03:22:23.779Z,95.29
2023-04-15T03:23:25.880Z,95.40
2023-04-15T03:24:27.800Z,94.86
2023-04-15T03:25:30.727Z,94.97
2023-04-15T03:26:32.705Z,94.63
2023-04-15T03:27:34.608Z,94.77
2023-04-15T03:28:36.673Z,94.81
2023-04-15T03:29:39.761Z,94.63
2023-04-15T03:30:41.902Z,94.48
2023-04-15T03:31:44.280Z,94.71
2023-04-15T03:32:46.263Z,94.79
2023-04-15T03:33:48.522Z,94.99
2023-04-15T03:34:50.367Z,94.84
2023-04-15T03:35:52.596Z,94.89
2023-04-15T03:36:55.624Z,94.91
2023-04-15T03:37:57.452Z,94.91
2023-04-15T03:38:59.669Z,95.14
2023-04-15T03:40:02.409Z,95.00
2023-04-15T03:41:04.465Z,95.24
2023-04-15T03:42:06.584Z,95.38
2023-04-15T03:43:08.432Z,95.46
2023-04-15T03:44:10.409Z,95.50
2023-04-15T03:45:12.651Z,95.87
2023-04-15T03:46:14.681Z,96.29
2023-04-15T03:47:16.745Z,96.16
2023-04-15T03:48:18.822Z,96.16
2023-04-15T03:49:20.840Z,96.24
2023-04-15T03:50:22.825Z,96.37
2023-04-15T03:51:24.817Z,96.28
2023-04-15T03:52:26.775Z,96.26
2023-04-15T03:53:28.656Z,96.20
2023-04-15T03:54:31.748Z,96.15
2023-04-15T03:55:33.666Z,96.19
2023-04-15T03:56:35.654Z,96.21
2023-04-15T03:57:37.557Z,96.12
2023-04-15T03:58:39.574Z,95.87
2023-04-15T03:59:41.480Z,95.85
2023-04-15T04:00:43.437Z,95.87
2023-04-15T04:01:45.464Z,95.88
2023-04-15T04:02:47.582Z,95.97
2023-04-15T04:03:50.801Z,95.79
2023-04-15T04:04:53.041Z,95.67
2023-04-15T04:05:55.646Z,95.54
2023-04-15T04:06:57.721Z,95.74
2023-04-15T04:07:59.557Z,95.78
2023-04-15T04:09:01.611Z,95.60
2023-04-15T04:10:05.050Z,95.29
2023-04-15T04:11:06.977Z,95.31
2023-04-15T04:12:08.907Z,95.08
2023-04-15T04:13:10.899Z,94.98
2023-04-15T04:14:12.782Z,95.44
2023-04-15T04:15:15.598Z,95.60
2023-04-15T04:17:29.180Z,95.47
2023-04-15T04:18:33.502Z,95.64
2023-04-15T04:19:35.639Z,95.50
2023-04-15T04:20:39.837Z,95.76
2023-04-15T04:21:41.755Z,96.11
2023-04-15T04:22:43.604Z,95.67
2023-04-15T04:23:45.461Z,95.53
2023-04-15T04:24:47.414Z,95.54
2023-04-15T04:25:49.303Z,95.39
2023-04-15T04:26:51.289Z,95.51
2023-04-15T04:27:54.934Z,95.77
2023-04-15T04:28:56.818Z,95.72
2023-04-15T04:29:58.713Z,95.77
2023-04-15T04:31:00.771Z,95.67
2023-04-15T04:32:02.680Z,95.69
2023-04-15T04:33:05.043Z,95.72
2023-04-15T04:34:07.283Z,96.01
2023-04-15T04:35:09.190Z,96.34
2023-04-15T04:36:11.262Z,96.39
2023-04-15T04:37:13.638Z,96.61
2023-04-15T04:38:15.509Z,96.23
2023-04-15T04:39:17.537Z,96.21
2023-04-15T04:40:19.563Z,96.14
2023-04-15T04:41:21.626Z,96.26
2023-04-15T04:42:25.056Z,96.21
2023-04-15T04:43:26.948Z,96.01
2023-04-15T04:44:28.815Z,96.06
2023-04-15T04:45:30.711Z,96.04
2023-04-15T04:46:33.491Z,95.88
2023-04-15T04:47:35.407Z,95.98
2023-04-15T04:48:37.250Z,95.88
2023-04-15T04:49:39.375Z,95.81
2023-04-15T04:50:41.346Z,95.53
2023-04-15T04:51:44.103Z,95.62
2023-04-15T04:52:46.061Z,95.74
2023-04-15T04:53:48.270Z,95.54
2023-04-15T04:54:50.147Z,95.39
2023-04-15T04:55:52.011Z,95.13
2023-04-15T04:56:54.010Z,94.91
2023-04-15T04:57:55.828Z,94.76
2023-04-15T04:58:57.711Z,94.77
2023-04-15T04:59:59.640Z,94.75
2023-04-15T05:01:02.884Z,94.41
2023-04-15T05:02:07.280Z,94.44
2023-04-15T05:03:10.190Z,94.53
2023-04-15T05:04:12.448Z,94.48
2023-04-15T05:05:14.374Z,94.53
2023-04-15T05:06:16.589Z,94.42
2023-04-15T05:07:18.442Z,94.18
2023-04-15T05:08:20.354Z,94.23
2023-04-15T05:09:22.289Z,94.07
2023-04-15T05:10:24.249Z,94.24
2023-04-15T05:11:26.125Z,94.27
2023-04-15T05:12:27.956Z,94.10
2023-04-15T05:13:29.973Z,94.16
2023-04-15T05:14:31.842Z,94.23
2023-04-15T05:15:33.763Z,94.09
2023-04-15T05:16:37.013Z,94.19
2023-04-15T05:17:39.144Z,94.12
2023-04-15T05:18:41.084Z,93.98
2023-04-15T05:19:42.939Z,93.78
2023-04-15T05:20:44.900Z,94.12
2023-04-15T05:21:47.073Z,94.20
2023-04-15T05:22:48.932Z,93.93
2023-04-15T05:23:50.817Z,93.74
2023-04-15T05:24:52.727Z,93.73
2023-04-15T05:25:54.610Z,93.93
2023-04-15T05:26:56.581Z,94.10
2023-04-15T05:27:58.449Z,93.99
2023-04-15T05:29:00.605Z,93.86
2023-04-15T05:30:03.228Z,93.83
2023-04-15T05:31:05.137Z,93.74
2023-04-15T05:32:07.524Z,93.73
2023-04-15T05:33:09.414Z,93.83
2023-04-15T05:34:11.281Z,93.74
2023-04-15T05:35:13.165Z,93.86
2023-04-15T05:36:15.485Z,93.78
2023-04-15T05:37:17.444Z,93.59
2023-04-15T05:38:19.336Z,93.74
2023-04-15T05:39:21.327Z,93.60
2023-04-15T05:40:23.338Z,93.15
2023-04-15T05:41:25.513Z,93.28
2023-04-15T05:42:27.575Z,93.41
2023-04-15T05:43:29.422Z,93.10
2023-04-15T05:44:31.617Z,93.17
2023-04-15T05:45:33.516Z,93.14
2023-04-15T05:46:37.743Z,92.91
2023-04-15T05:47:39.793Z,92.90
2023-04-15T05:48:41.740Z,92.83
2023-04-15T05:49:43.700Z,92.57
2023-04-15T05:50:46.508Z,92.61
2023-04-15T05:51:48.579Z,92.82
2023-04-15T05:52:50.450Z,92.44
2023-04-15T05:53:52.298Z,92.31
2023-04-15T05:54:54.220Z,92.27
2023-04-15T05:55:56.099Z,92.17
2023-04-15T05:56:58.297Z,92.09
2023-04-15T05:58:00.147Z,91.90
2023-04-15T05:59:02.223Z,91.64
2023-04-15T06:00:05.955Z,91.41
2023-04-15T06:01:11.215Z,91.16
2023-04-15T06:02:13.309Z,91.06
2023-04-15T06:03:15.502Z,90.54
2023-04-15T06:04:17.717Z,90.21
2023-04-15T06:05:19.901Z,90.31
2023-04-15T06:06:21.912Z,90.45
2023-04-15T06:07:23.910Z,90.61
2023-04-15T06:08:25.803Z,90.36
2023-04-15T06:09:27.736Z,90.19
2023-04-15T06:10:30.972Z,90.24
2023-04-15T06:11:35.046Z,90.45
2023-04-15T06:12:37.149Z,90.20
2023-04-15T06:13:39.032Z,90.38
2023-04-15T06:14:41.105Z,90.93
2023-04-15T06:15:43.109Z,91.01
2023-04-15T06:16:46.560Z,90.80
2023-04-15T06:17:48.797Z,90.97
2023-04-15T06:18:50.730Z,91.43
2023-04-15T06:19:55.066Z,91.46
2023-04-15T06:20:57.637Z,91.75
2023-04-15T06:22:00.609Z,91.39
2023-04-15T06:23:02.495Z,91.17
2023-04-15T06:24:04.860Z,91.04
2023-04-15T06:25:08.166Z,91.12
2023-04-15T06:26:10.360Z,91.12
2023-04-15T06:27:12.221Z,91.42
2023-04-15T06:28:14.092Z,91.24
2023-04-15T06:29:15.973Z,91.37
2023-04-15T06:30:18.251Z,90.60
2023-04-15T06:31:20.126Z,90.35
2023-04-15T06:32:22.171Z,90.14
2023-04-15T06:33:24.237Z,90.22
2023-04-15T06:34:26.158Z,90.19
2023-04-15T06:35:28.097Z,90.00
2023-04-15T06:36:31.350Z,89.78
2023-04-15T06:37:33.196Z,89.94
2023-04-15T06:38:35.087Z,90.12
2023-04-15T06:39:36.941Z,90.07
2023-04-15T06:40:39.927Z,89.86
2023-04-15T06:41:42.345Z,90.20
2023-04-15T06:42:46.105Z,90.10
2023-04-15T06:43:48.403Z,89.88
2023-04-15T06:44:50.327Z,89.91
2023-04-15T06:45:52.237Z,90.22
2023-04-15T06:46:54.656Z,90.22
2023-04-15T06:47:56.627Z,90.36
2023-04-15T06:48:58.673Z,90.52
2023-04-15T06:50:00.529Z,90.45
2023-04-15T06:51:02.626Z,89.93
2023-04-15T06:52:04.523Z,89.37
2023-04-15T06:53:06.960Z,89.51
2023-04-15T06:54:08.863Z,89.86
2023-04-15T06:55:10.806Z,89.86
2023-04-15T06:56:12.966Z,89.82
2023-04-15T06:57:14.817Z,89.95
2023-04-15T06:58:16.677Z,89.99
2023-04-15T06:59:18.561Z,89.64
2023-04-15T07:00:20.877Z,89.40
2023-04-15T07:01:22.819Z,89.16
2023-04-15T07:02:25.408Z,89.25
2023-04-15T07:03:28.368Z,88.97
2023-04-15T07:04:30.478Z,89.12
2023-04-15T07:05:32.461Z,88.99
2023-04-15T07:06:34.476Z,89.00
2023-04-15T07:07:36.363Z,88.67
2023-04-15T07:08:38.249Z,88.92
2023-04-15T07:09:40.323Z,88.97
2023-04-15T07:10:42.411Z,89.00
2023-04-15T07:11:44.294Z,88.85
2023-04-15T07:12:47.855Z,88.87
2023-04-15T07:13:50.009Z,88.87
2023-04-15T07:14:52.173Z,89.02
2023-04-15T07:15:54.050Z,89.01
2023-04-15T07:16:56.130Z,88.76
2023-04-15T07:17:58.272Z,88.54
2023-04-15T07:19:00.654Z,88.61
2023-04-15T07:20:03.131Z,89.20
2023-04-15T07:21:05.212Z,89.72
2023-04-15T07:22:07.100Z,89.52
2023-04-15T07:23:08.956Z,89.59
2023-04-15T07:24:10.809Z,89.78
2023-04-15T07:25:12.662Z,89.42
2023-04-15T07:26:14.648Z,89.65
2023-04-15T07:27:16.507Z,89.68
2023-04-15T07:28:20.667Z,89.39
2023-04-15T07:29:22.713Z,89.59
2023-04-15T07:30:24.705Z,89.65
2023-04-15T07:31:26.738Z,89.76
2023-04-15T07:32:28.808Z,89.58
2023-04-15T07:33:30.768Z,89.57
2023-04-15T07:34:32.856Z,89.53
2023-04-15T07:35:36.157Z,89.68
2023-04-15T07:36:39.935Z,89.61
2023-04-15T07:37:41.867Z,89.89
2023-04-15T07:38:43.838Z,89.91
2023-04-15T07:39:46.201Z,90.14
2023-04-15T07:40:48.306Z,90.27
2023-04-15T07:41:51.190Z,90.48
2023-04-15T07:42:53.371Z,90.62
2023-04-15T07:43:55.263Z,90.60
2023-04-15T07:44:57.159Z,90.84
2023-04-15T07:45:59.173Z,91.43
2023-04-15T07:47:02.791Z,91.55
2023-04-15T07:48:05.611Z,91.61
2023-04-15T07:49:07.495Z,91.60
2023-04-15T07:50:10.185Z,91.56
2023-04-15T07:51:12.014Z,91.80
2023-04-15T07:52:13.902Z,91.57
2023-04-15T07:53:15.817Z,91.17
2023-04-15T07:54:17.688Z,91.09
2023-04-15T07:55:20.429Z,90.99
2023-04-15T07:56:22.388Z,90.97
2023-04-15T07:57:24.274Z,90.43
2023-04-15T07:58:26.166Z,90.02
2023-04-15T07:59:29.260Z,90.18
2023-04-15T08:00:31.240Z,89.97
2023-04-15T08:01:33.813Z,89.63
2023-04-15T08:02:37.543Z,89.41
2023-04-15T08:03:39.861Z,89.07
2023-04-15T08:04:43.288Z,89.15
2023-04-15T08:05:45.514Z,89.14
2023-04-15T08:06:47.579Z,88.76
2023-04-15T08:07:49.486Z,88.83
2023-04-15T08:08:51.350Z,88.70
2023-04-15T08:09:53.327Z,88.37
2023-04-15T08:10:55.352Z,88.35
2023-04-15T08:11:57.437Z,88.57
2023-04-15T08:13:01.310Z,88.97
2023-04-15T08:14:03.667Z,88.99
2023-04-15T08:15:07.115Z,88.94
2023-04-15T08:16:20.985Z,88.84
2023-04-15T08:17:23.934Z,88.89
2023-04-15T08:18:25.834Z,89.12
2023-04-15T08:19:27.691Z,88.66
2023-04-15T08:20:29.741Z,88.33
2023-04-15T08:21:33.828Z,88.34
2023-04-15T08:22:35.733Z,88.14
2023-04-15T08:23:38.188Z,88.04
2023-04-15T08:24:42.874Z,88.05
2023-04-15T08:25:44.802Z,87.35
2023-04-15T08:26:46.792Z,86.94
2023-04-15T08:27:48.709Z,86.80
2023-04-15T08:28:50.631Z,86.76
2023-04-15T08:29:52.591Z,86.89
2023-04-15T08:30:54.754Z,87.03
2023-04-15T08:31:57.049Z,86.85
2023-04-15T08:33:00.012Z,87.03
2023-04-15T08:34:01.999Z,86.42
2023-04-15T08:35:04.970Z,86.20
2023-04-15T08:36:07.575Z,85.99
2023-04-15T08:37:10.847Z,85.84
2023-04-15T08:38:13.290Z,85.75
2023-04-15T08:39:15.213Z,85.70
2023-04-15T08:40:17.311Z,85.85
2023-04-15T08:41:24.498Z,85.11
2023-04-15T08:42:32.846Z,84.76
2023-04-15T08:43:37.034Z,84.82
2023-04-15T08:44:39.901Z,84.69
2023-04-15T08:45:43.534Z,84.77
2023-04-15T08:46:47.349Z,84.77
2023-04-15T08:47:53.216Z,85.14
2023-04-15T08:48:57.323Z,85.18
2023-04-15T08:50:01.416Z,84.79
2023-04-15T08:51:06.045Z,84.50
2023-04-15T08:52:08.460Z,84.51
2023-04-15T08:53:11.510Z,84.53
2023-04-15T08:54:13.748Z,84.49
2023-04-15T08:55:16.397Z,84.15
2023-04-15T08:56:20.753Z,84.35
2023-04-15T08:57:27.885Z,84.38
2023-04-15T08:58:30.466Z,84.26
2023-04-15T08:59:32.688Z,84.25
2023-04-15T09:00:35.496Z,84.08
2023-04-15T09:01:37.784Z,83.91
2023-04-15T09:02:42.299Z,83.93
2023-04-15T09:03:45.218Z,83.68
2023-04-15T09:04:47.346Z,83.65
2023-04-15T09:05:51.390Z,84.04
2023-04-15T09:06:54.484Z,84.19
2023-04-15T09:07:56.820Z,83.95
2023-04-15T09:08:59.110Z,83.74
2023-04-15T09:10:03.821Z,83.62
2023-04-15T09:11:05.978Z,83.53
2023-04-15T09:12:11.441Z,83.94
2023-04-15T09:13:13.814Z,83.81
2023-04-15T09:14:17.765Z,83.49
2023-04-15T09:15:20.170Z,83.71
2023-04-15T09:16:23.438Z,84.01
2023-04-15T09:17:25.890Z,84.25
2023-04-15T09:18:33.222Z,84.26
2023-04-15T09:19:35.509Z,83.57
2023-04-15T09:20:42.413Z,83.21
2023-04-15T09:21:46.906Z,82.94
2023-04-15T09:22:51.425Z,82.94
2023-04-15T09:23:56.330Z,83.22
2023-04-15T09:24:58.388Z,83.55
2023-04-15T09:26:04.144Z,83.85
2023-04-15T09:27:07.746Z,83.97
2023-04-15T09:28:11.160Z,84.24
2023-04-15T09:29:13.697Z,84.16
2023-04-15T09:30:16.157Z,83.78
2023-04-15T09:31:23.020Z,83.79
2023-04-15T09:32:25.126Z,84.16
2023-04-15T09:33:28.711Z,84.20
2023-04-15T09:34:38.390Z,84.25
2023-04-15T09:35:41.502Z,84.50
2023-04-15T09:36:56.421Z,84.41
2023-04-15T09:38:05.597Z,84.27
2023-04-15T09:39:09.397Z,84.34
2023-04-15T09:40:14.954Z,84.45
2023-04-15T09:41:18.073Z,84.32
2023-04-15T09:42:21.466Z,84.22
2023-04-15T09:43:40.867Z,84.35
2023-04-15T09:44:43.425Z,84.62
2023-04-15T09:45:53.076Z,84.81
2023-04-15T09:46:55.115Z,84.79
2023-04-15T09:47:59.759Z,84.40
2023-04-15T09:49:09.848Z,83.92
2023-04-15T09:50:12.261Z,84.25
2023-04-15T09:51:14.332Z,83.75
2023-04-15T09:52:16.346Z,83.86
2023-04-15T09:54:35.947Z,84.04
2023-04-15T09:55:37.975Z,84.05
2023-04-15T09:56:40.961Z,84.13
2023-04-15T09:57:43.085Z,84.07
2023-04-15T09:58:46.355Z,84.19
2023-04-15T09:59:48.894Z,84.19
2023-04-15T10:00:53.559Z,84.08
2023-04-15T10:01:57.029Z,83.83
2023-04-15T10:02:59.353Z,83.63
2023-04-15T10:04:05.962Z,83.57
2023-04-15T10:06:27.661Z,83.97
2023-04-15T10:07:30.619Z,84.19
2023-04-15T10:08:33.740Z,84.13
2023-04-15T10:09:37.613Z,84.39
2023-04-15T10:10:40.181Z,84.75
2023-04-15T10:11:43.894Z,84.30
2023-04-15T10:12:46.358Z,84.27
2023-04-15T10:13:51.922Z,84.45
2023-04-15T10:15:03.622Z,84.46
2023-04-15T10:16:15.032Z,84.61
2023-04-15T10:17:20.159Z,84.76
2023-04-15T10:18:27.512Z,84.37
2023-04-15T10:19:32.633Z,84.23
2023-04-15T10:20:36.807Z,84.13
2023-04-15T10:21:41.324Z,84.29
2023-04-15T10:22:46.081Z,83.97
2023-04-15T10:23:51.695Z,84.22
2023-04-15T10:24:56.044Z,84.28
2023-04-15T10:25:59.076Z,84.48
2023-04-15T10:27:02.932Z,84.24
2023-04-15T10:28:07.210Z,84.02
2023-04-15T10:29:11.702Z,83.81
2023-04-15T10:30:16.103Z,84.00
2023-04-15T10:31:18.639Z,84.21
2023-04-15T10:32:22.957Z,84.39
2023-04-15T10:33:26.446Z,83.76
2023-04-15T10:34:36.611Z,83.83
2023-04-15T10:35:40.048Z,83.96
2023-04-15T10:36:42.515Z,84.30
2023-04-15T10:37:44.588Z,84.12
2023-04-15T10:38:46.910Z,84.44
2023-04-15T10:39:49.018Z,84.29
2023-04-15T10:40:53.360Z,84.15
2023-04-15T10:42:12.546Z,84.36
2023-04-15T10:43:21.167Z,84.33
2023-04-15T10:44:23.398Z,84.31
2023-04-15T10:45:27.935Z,83.97
2023-04-15T10:46:40.327Z,83.94
2023-04-15T10:47:44.653Z,83.92
2023-04-15T10:48:51.158Z,83.85
2023-04-15T10:50:01.406Z,83.64
2023-04-15T10:51:04.736Z,83.89
2023-04-15T10:52:09.126Z,83.05
2023-04-15T10:53:11.138Z,83.62
2023-04-15T10:54:26.285Z,83.52
2023-04-15T10:55:38.180Z,83.45
2023-04-15T10:56:45.850Z,83.51
2023-04-15T10:57:53.046Z,83.76
2023-04-15T11:00:29.392Z,83.97
2023-04-15T11:01:54.994Z,83.29
2023-04-15T11:03:01.979Z,83.66
2023-04-15T11:04:04.512Z,83.57
2023-04-15T11:05:07.584Z,83.58
2023-04-15T11:06:13.721Z,83.72
2023-04-15T11:07:53.165Z,83.94
2023-04-15T11:09:02.698Z,83.55
2023-04-15T11:10:20.288Z,83.71
2023-04-15T11:11:23.143Z,83.55
2023-04-15T11:12:49.820Z,83.42
2023-04-15T11:13:51.756Z,83.38
2023-04-15T11:14:58.812Z,83.59
2023-04-15T11:16:02.782Z,83.73
2023-04-15T11:17:07.374Z,83.45
2023-04-15T11:19:38.475Z,84.00
2023-04-15T11:20:43.573Z,83.72
2023-04-15T11:21:45.484Z,83.83
2023-04-15T11:24:04.277Z,83.61
2023-04-15T11:25:08.003Z,83.88
2023-04-15T11:26:11.011Z,83.98
2023-04-15T11:27:23.207Z,84.00
2023-04-15T11:28:30.163Z,83.98
2023-04-15T11:29:32.176Z,83.83
2023-04-15T11:30:36.767Z,83.85
2023-04-15T11:31:39.833Z,83.62
2023-04-15T11:32:42.076Z,83.51
2023-04-15T11:33:47.096Z,83.78
2023-04-15T11:34:51.468Z,84.27
2023-04-15T11:35:53.635Z,84.26
2023-04-15T11:36:58.896Z,84.13
2023-04-15T11:38:06.518Z,83.79
2023-04-15T11:39:08.893Z,83.63
2023-04-15T11:40:13.660Z,84.11
2023-04-15T11:41:23.620Z,84.09
2023-04-15T11:42:25.672Z,84.04
2023-04-15T11:43:31.561Z,83.75
2023-04-15T11:44:33.533Z,83.62
2023-04-15T11:45:37.251Z,83.31
2023-04-15T11:46:39.379Z,83.24
2023-04-15T11:47:42.302Z,83.69
2023-04-15T11:48:46.426Z,84.09
2023-04-15T11:49:48.549Z,84.08
2023-04-15T11:51:05.718Z,84.56
2023-04-15T11:52:12.662Z,84.71
2023-04-15T11:53:14.630Z,84.99
2023-04-15T11:54:18.915Z,85.06
2023-04-15T11:55:21.001Z,84.82
2023-04-15T11:56:25.778Z,84.66
2023-04-15T11:57:31.818Z,85.06
2023-04-15T11:58:35.768Z,85.17
2023-04-15T11:59:46.062Z,85.09
2023-04-15T12:00:53.331Z,85.03
2023-04-15T12:01:55.326Z,84.58
2023-04-15T12:03:17.928Z,84.61
2023-04-15T12:04:22.577Z,84.79
2023-04-15T12:05:24.010Z,84.94
2023-04-15T12:06:31.807Z,85.16
2023-04-15T12:07:35.761Z,85.44
2023-04-15T12:08:58.251Z,85.59
2023-04-15T12:10:00.196Z,85.60
2023-04-15T12:11:02.398Z,85.77
2023-04-15T12:12:04.298Z,85.11
2023-04-15T12:13:09.304Z,84.98
2023-04-15T12:14:28.747Z,84.80
2023-04-15T12:15:31.973Z,85.18
2023-04-15T12:16:48.682Z,85.21
2023-04-15T12:17:51.474Z,85.12
2023-04-15T12:18:52.670Z,84.97
2023-04-15T12:19:57.471Z,85.10
2023-04-15T12:21:08.367Z,85.21
2023-04-15T12:22:15.811Z,84.90
2023-04-15T12:23:20.588Z,84.89
2023-04-15T12:24:22.710Z,85.07
2023-04-15T12:25:33.471Z,85.27
2023-04-15T12:26:50.332Z,85.12
2023-04-15T12:27:52.243Z,85.13
2023-04-15T12:29:02.027Z,85.37
2023-04-15T12:30:06.129Z,85.07
2023-04-15T12:31:11.954Z,84.95
2023-04-15T12:32:16.014Z,85.09
2023-04-15T12:33:18.137Z,84.92
2023-04-15T12:34:29.501Z,84.74
2023-04-15T12:35:31.819Z,84.60
2023-04-15T12:36:34.172Z,84.90
2023-04-15T12:37:36.090Z,85.05
2023-04-15T12:38:37.956Z,85.42
2023-04-15T12:39:43.608Z,85.39
2023-04-15T12:40:46.571Z,85.69
2023-04-15T12:41:49.563Z,85.78
2023-04-15T12:42:51.479Z,85.61
2023-04-15T12:43:53.379Z,85.73
2023-04-15T12:44:55.248Z,85.87
2023-04-15T12:45:57.128Z,85.85
2023-04-15T12:47:00.375Z,86.11
2023-04-15T12:48:02.732Z,85.86
2023-04-15T12:49:04.777Z,85.94
2023-04-15T12:50:10.315Z,85.98
2023-04-15T12:51:13.740Z,86.09
2023-04-15T12:52:15.787Z,85.95
2023-04-15T12:53:17.924Z,86.13
2023-04-15T12:54:20.382Z,86.31
2023-04-15T12:55:22.306Z,86.50
2023-04-15T12:56:24.309Z,86.06
2023-04-15T12:57:26.166Z,86.21
2023-04-15T12:58:28.152Z,86.37
2023-04-15T12:59:31.937Z,86.53
2023-04-15T13:00:36.597Z,86.37
2023-04-15T13:01:39.158Z,86.70
2023-04-15T13:02:43.885Z,86.59
2023-04-15T13:03:46.139Z,86.60
2023-04-15T13:04:48.333Z,86.69
2023-04-15T13:05:51.107Z,86.88
2023-04-15T13:06:53.184Z,86.93
2023-04-15T13:07:55.322Z,86.54
2023-04-15T13:08:58.747Z,86.33
2023-04-15T13:10:01.056Z,86.14
2023-04-15T13:11:03.727Z,86.30
2023-04-15T13:12:07.195Z,86.61
2023-04-15T13:13:09.285Z,86.69
2023-04-15T13:14:13.534Z,86.70
2023-04-15T13:15:15.680Z,86.55
2023-04-15T13:16:18.511Z,86.53
2023-04-15T13:17:21.314Z,86.70
2023-04-15T13:18:23.373Z,86.51
2023-04-15T13:19:25.609Z,86.56
2023-04-15T13:20:27.840Z,86.67
2023-04-15T13:21:30.827Z,86.81
2023-04-15T13:22:32.745Z,86.85
2023-04-15T13:23:34.675Z,86.93
2023-04-15T13:24:36.564Z,86.98
2023-04-15T13:25:38.834Z,86.92
2023-04-15T13:26:41.019Z,87.06
2023-04-15T13:27:43.227Z,87.28
2023-04-15T13:28:45.575Z,86.82
2023-04-15T13:29:47.644Z,86.84
2023-04-15T13:30:49.625Z,86.88
2023-04-15T13:31:51.581Z,86.63
2023-04-15T13:32:54.234Z,86.78
2023-04-15T13:33:57.414Z,86.83
2023-04-15T13:35:00.405Z,86.62
2023-04-15T13:36:02.728Z,86.52
2023-04-15T13:37:08.242Z,86.48
2023-04-15T13:38:10.257Z,86.73
2023-04-15T13:39:12.324Z,86.77
2023-04-15T13:40:14.341Z,86.73
2023-04-15T13:41:16.314Z,86.75
2023-04-15T13:42:18.305Z,86.74
2023-04-15T13:43:20.364Z,86.69